Time;durP1;ratioP1;P1;durP2;ratioP2;P2;SDS_P1;SDS_P2;PMS_P1;PMS_P2;Temp;Humidity;BMP_temperature;BMP_pressure;BME280_temperature;BME280_humidity;BME280_pressure;Samples;Min_cycle;Max_cycle;Signal;HPM_P1;HPM_P2
2022/12/19 00:02:06;;;;;;;;;;;;;;;-10.89;79.99;100821.75;5082674;28;20065;-63
2022/12/19 00:04:32;;;;;;;;;;;;;;;-10.98;79.94;100813.50;5081498;28;19928;-64
2022/12/19 00:06:57;;;;;;;;;;;;;;;-10.89;80.21;100819.13;5047730;28;19928;-63
2022/12/19 00:09:25;;;;;;;;;;;;;;;-10.78;80.41;100816.50;5083111;28;19928;-64
2022/12/19 00:11:51;;;;;;;;;;;;;;;-10.75;80.39;100815.47;5083514;28;20026;-64
2022/12/19 00:14:17;;;;;;;;;;;;;;;-10.79;80.16;100816.66;5063644;28;19928;-64
2022/12/19 00:16:42;;;;;;;;;;;;;;;-10.79;80.32;100812.19;5064538;28;19935;-63
2022/12/19 00:19:09;;;;;;;;;;;;;;;-10.73;80.26;100813.53;5086640;28;19973;-64
2022/12/19 00:21:36;;;;;;;;;;;;;;;-10.61;79.98;100823.22;5082666;28;19928;-65
2022/12/19 00:24:01;;;;;;;;;;;;;;;-10.52;80.10;100832.28;5083288;28;19928;-65
2022/12/19 00:26:29;;;;;;;;;;;;;;;-10.43;80.35;100820.19;5081613;28;19982;-66
2022/12/19 00:28:57;;;;;;;;;;;;;;;-10.33;80.31;100822.97;5081176;28;19986;-65
2022/12/19 00:31:24;;;;;;;;;;;;;;;-10.34;79.78;100821.28;5066121;28;20449;-65
2022/12/19 00:33:49;;;;;;;;;;;;;;;-10.58;79.45;100788.63;5063198;28;19932;-66
2022/12/19 00:36:16;;;;;;;;;;;;;;;-10.42;79.65;100827.16;5065202;28;19989;-63
2022/12/19 00:38:42;;;;;;;;;;;;;;;-10.33;80.15;100828.25;5047388;28;19928;-64
2022/12/19 00:41:09;;;;;;;;;;;;;;;-10.37;79.43;100826.81;5047046;28;19985;-64
2022/12/19 00:43:36;;;;;;;;;;;;;;;-10.34;79.45;100826.56;5064633;28;19973;-64
2022/12/19 00:46:02;;;;;;;;;;;;;;;-10.25;79.62;100839.13;5080454;28;20337;-64
2022/12/19 00:48:29;;;;;;;;;;;;;;;-10.12;79.10;100841.69;5080551;28;19928;-64
2022/12/19 00:50:57;;;;;;;;;;;;;;;-10.01;78.91;100830.31;5046101;28;19963;-64
2022/12/19 00:53:23;;;;;;;;;;;;;;;-9.92;78.93;100832.28;5082255;28;20331;-64
2022/12/19 00:55:49;;;;;;;;;;;;;;;-9.88;78.83;100833.72;5065699;28;19932;-64
2022/12/19 00:58:14;;;;;;;;;;;;;;;-9.79;78.68;100831.34;5047901;28;19935;-64
2022/12/19 01:00:41;;;;;;;;;;;;;;;-9.80;78.74;100822.53;5082691;28;20034;-64
2022/12/19 01:03:07;;;;;;;;;;;;;;;-9.80;79.10;100821.72;5082322;28;19928;-64
2022/12/19 01:05:33;;;;;;;;;;;;;;;-9.75;79.08;100820.41;5082674;28;19927;-64
2022/12/19 01:07:58;;;;;;;;;;;;;;;-9.69;79.26;100817.28;5046419;28;19932;-64
2022/12/19 01:10:27;;;;;;;;;;;;;;;-9.69;79.02;100816.41;5081871;28;19928;-64
2022/12/19 01:12:53;;;;;;;;;;;;;;;-9.72;79.25;100806.06;5068115;28;19927;-64
2022/12/19 01:15:19;;;;;;;;;;;;;;;-9.70;79.43;100809.44;5067838;28;19975;-64
2022/12/19 01:17:47;;;;;;;;;;;;;;;-9.65;79.77;100807.31;5068121;28;20427;-64
2022/12/19 01:20:13;;;;;;;;;;;;;;;-9.66;79.81;100815.34;5068469;28;19934;-64
2022/12/19 01:22:39;;;;;;;;;;;;;;;-9.70;80.20;100812.94;5085767;28;20370;-64
2022/12/19 01:25:05;;;;;;;;;;;;;;;-9.78;80.48;100814.50;5087462;28;19935;-64
2022/12/19 01:27:31;;;;;;;;;;;;;;;-9.87;81.01;100814.22;5085165;28;19935;-63
2022/12/19 01:29:57;;;;;;;;;;;;;;;-9.95;81.30;100821.91;5085074;28;20385;-64
2022/12/19 01:32:22;;;;;;;;;;;;;;;-10.00;81.93;100818.75;5069376;28;20034;-64
2022/12/19 01:34:50;;;;;;;;;;;;;;;-10.01;82.55;100811.78;5087190;28;19928;-64
2022/12/19 01:37:15;;;;;;;;;;;;;;;-10.02;82.84;100810.94;5083505;28;20031;-64
2022/12/19 01:39:41;;;;;;;;;;;;;;;-10.01;83.46;100809.13;5066861;28;20030;-64
2022/12/19 01:42:12;;;;;;;;;;;;;;;-9.98;83.81;100822.16;5066367;28;19928;-63
2022/12/19 01:44:37;;;;;;;;;;;;;;;-9.92;84.09;100808.44;5067825;28;19927;-63
2022/12/19 01:47:03;;;;;;;;;;;;;;;-9.83;83.85;100806.91;5069955;28;20027;-65
2022/12/19 01:49:30;;;;;;;;;;;;;;;-9.82;83.95;100803.28;5069835;28;19982;-65
2022/12/19 01:51:59;;;;;;;;;;;;;;;-9.84;84.16;100805.22;5087468;28;19928;-65
2022/12/19 01:54:28;;;;;;;;;;;;;;;-9.84;84.14;100807.88;5066373;28;19928;-65
2022/12/19 01:56:56;;;;;;;;;;;;;;;-9.78;84.21;100815.31;5066792;28;20311;-65
2022/12/19 01:59:24;;;;;;;;;;;;;;;-9.76;84.36;100810.75;5083635;28;20439;-65
2022/12/19 02:01:52;;;;;;;;;;;;;;;-9.73;84.42;100810.53;5085272;28;19935;-65
2022/12/19 02:04:22;;;;;;;;;;;;;;;-9.75;84.36;100811.59;5068437;28;19972;-66
2022/12/19 02:06:48;;;;;;;;;;;;;;;-9.79;84.97;100812.81;5068715;28;19992;-65
2022/12/19 02:09:16;;;;;;;;;;;;;;;-9.75;85.16;100816.91;5068575;28;19934;-65
2022/12/19 02:11:42;;;;;;;;;;;;;;;-9.73;85.18;100817.63;5068955;28;19928;-66
2022/12/19 02:14:08;;;;;;;;;;;;;;;-9.71;85.16;100818.34;5066435;28;20318;-66
2022/12/19 02:16:58;;;;;;;;;;;;;;;-9.68;85.68;100811.03;5056209;28;19935;-65
2022/12/19 02:19:37;;;;;;;;;;;;;;;-9.61;85.46;100803.44;5068378;28;19935;-65
2022/12/19 02:22:09;;;;;;;;;;;;;;;-9.53;85.52;100805.50;5068615;28;19928;-65
2022/12/19 02:24:52;;;;;;;;;;;;;;;-9.49;85.40;100806.13;5070696;28;19928;-65
2022/12/19 02:27:36;;;;;;;;;;;;;;;-9.46;85.68;100793.44;5066095;28;19935;-65
2022/12/19 02:30:09;;;;;;;;;;;;;;;-9.38;85.53;100789.38;5066829;28;19942;-65
2022/12/19 02:32:46;;;;;;;;;;;;;;;-9.29;85.32;100796.59;5069475;28;20043;-65
2022/12/19 02:35:17;;;;;;;;;;;;;;;-9.20;85.40;100793.22;5067311;28;20433;-65
2022/12/19 02:37:45;;;;;;;;;;;;;;;-9.14;84.95;100787.41;5066823;28;19936;-65
2022/12/19 02:40:13;;;;;;;;;;;;;;;-9.03;85.42;100786.59;5063362;28;19967;-65
2022/12/19 02:42:42;;;;;;;;;;;;;;;-8.92;85.30;100783.06;5068153;28;20042;-65
2022/12/19 02:45:10;;;;;;;;;;;;;;;-8.81;85.09;100778.72;5068043;28;20327;-65
2022/12/19 02:47:37;;;;;;;;;;;;;;;-8.65;84.77;100771.19;5052532;28;19928;-65
2022/12/19 02:50:06;;;;;;;;;;;;;;;-8.64;84.83;100764.94;5044318;28;19929;-65
2022/12/19 02:52:45;;;;;;;;;;;;;;;-8.62;84.70;100768.28;5042941;28;20027;-66
2022/12/19 02:55:13;;;;;;;;;;;;;;;-8.55;85.07;100763.31;5042981;28;19971;-65
2022/12/19 02:57:45;;;;;;;;;;;;;;;-8.43;85.00;100761.44;5042002;28;19967;-65
2022/12/19 03:00:16;;;;;;;;;;;;;;;-8.38;84.98;100753.91;5041176;28;20396;-66
2022/12/19 03:02:48;;;;;;;;;;;;;;;-8.28;85.13;100754.84;5041304;28;20400;-65
2022/12/19 03:05:19;;;;;;;;;;;;;;;-8.18;84.80;100759.41;5041089;28;19932;-65
2022/12/19 03:07:48;;;;;;;;;;;;;;;-8.14;84.72;100751.03;5042204;28;20311;-64
2022/12/19 03:10:18;;;;;;;;;;;;;;;-8.10;84.50;100745.47;5042936;28;19935;-64
2022/12/19 03:12:46;;;;;;;;;;;;;;;-8.06;84.49;100753.03;5024825;28;19939;-64
2022/12/19 03:15:12;;;;;;;;;;;;;;;-7.99;84.35;100745.38;5042977;28;19935;-64
2022/12/19 03:17:38;;;;;;;;;;;;;;;-7.94;84.30;100751.16;5042313;28;20069;-64
2022/12/19 03:20:07;;;;;;;;;;;;;;;-7.92;83.83;100738.59;5043778;28;20028;-64
2022/12/19 03:22:34;;;;;;;;;;;;;;;-7.90;83.91;100741.09;5043825;28;19929;-64
2022/12/19 03:25:00;;;;;;;;;;;;;;;-7.91;83.34;100742.94;5047363;28;19943;-64
2022/12/19 03:27:28;;;;;;;;;;;;;;;-7.86;83.70;100739.91;5045939;28;20046;-64
2022/12/19 03:29:55;;;;;;;;;;;;;;;-7.87;83.34;100731.06;5043161;28;19929;-64
2022/12/19 03:32:23;;;;;;;;;;;;;;;-7.86;83.50;100735.41;5042986;28;19951;-64
2022/12/19 03:34:51;;;;;;;;;;;;;;;-7.77;83.74;100732.94;5074876;28;19936;-66
2022/12/19 03:37:21;;;;;;;;;;;;;;;-7.72;83.58;100733.38;5042328;28;20024;-66
2022/12/19 03:39:49;;;;;;;;;;;;;;;-7.70;83.35;100734.94;5042204;28;19928;-65
2022/12/19 03:45:02;;;;;;;;;;;;;;;-7.64;83.18;100725.63;5042803;28;19928;-65
2022/12/19 03:47:32;;;;;;;;;;;;;;;-7.64;83.36;100722.97;5065300;28;19940;-65
2022/12/19 03:49:58;;;;;;;;;;;;;;;-7.65;83.43;100718.59;5064269;28;20473;-65
2022/12/19 03:52:27;;;;;;;;;;;;;;;-7.56;83.43;100719.63;5082462;28;19928;-65
2022/12/19 03:54:59;;;;;;;;;;;;;;;-7.52;83.65;100720.19;5081362;28;19953;-65
2022/12/19 03:57:27;;;;;;;;;;;;;;;-7.47;83.57;100721.47;5080466;28;19928;-65
2022/12/19 03:59:56;;;;;;;;;;;;;;;-7.43;83.39;100724.72;5081523;28;19992;-65
2022/12/19 04:02:22;;;;;;;;;;;;;;;-7.42;83.37;100710.44;5084066;28;19971;-65
2022/12/19 04:04:51;;;;;;;;;;;;;;;-7.43;83.27;100696.31;5065298;28;19935;-66
2022/12/19 04:07:17;;;;;;;;;;;;;;;-7.37;83.34;100694.09;5083393;28;19928;-64
2022/12/19 04:09:44;;;;;;;;;;;;;;;-7.33;83.36;100703.47;5083712;28;19932;-64
2022/12/19 04:12:14;;;;;;;;;;;;;;;-7.28;83.34;100688.81;5066312;28;19935;-64
2022/12/19 04:14:40;;;;;;;;;;;;;;;-7.21;83.48;100690.91;5083422;28;19951;-64
2022/12/19 04:17:11;;;;;;;;;;;;;;;-7.15;83.43;100685.88;5086662;28;20038;-64
2022/12/19 04:19:39;;;;;;;;;;;;;;;-7.14;83.13;100695.53;5067411;28;19964;-64
2022/12/19 04:22:09;;;;;;;;;;;;;;;-7.16;82.86;100712.63;5067103;28;19928;-64
2022/12/19 04:24:37;;;;;;;;;;;;;;;-7.23;82.61;100709.66;5084397;28;19974;-64
2022/12/19 04:27:04;;;;;;;;;;;;;;;-7.33;82.41;100692.84;5086921;28;19928;-64
2022/12/19 04:29:33;;;;;;;;;;;;;;;-7.42;82.59;100683.88;5065708;28;20334;-64
2022/12/19 04:32:00;;;;;;;;;;;;;;;-7.56;82.86;100675.28;5081631;28;19932;-64
2022/12/19 04:34:26;;;;;;;;;;;;;;;-7.70;83.11;100681.81;5083429;28;20303;-64
2022/12/19 04:36:52;;;;;;;;;;;;;;;-7.83;83.46;100674.06;5085616;28;19950;-64
2022/12/19 04:39:18;;;;;;;;;;;;;;;-7.80;83.95;100670.31;5086339;28;19956;-64
2022/12/19 04:41:43;;;;;;;;;;;;;;;-7.76;83.92;100682.34;5083497;28;19928;-64
2022/12/19 04:44:09;;;;;;;;;;;;;;;-7.73;83.94;100681.25;4707800;28;10000151;-65
2022/12/19 04:46:36;;;;;;;;;;;;;;;-7.75;83.32;100689.31;5062159;28;19935;-64
2022/12/19 04:49:02;;;;;;;;;;;;;;;-7.74;83.46;100696.31;5082841;28;19928;-64
2022/12/19 04:51:27;;;;;;;;;;;;;;;-7.74;82.87;100711.44;5081796;28;19955;-64
2022/12/19 04:53:53;;;;;;;;;;;;;;;-7.76;82.43;100702.75;5098060;28;19928;-64
2022/12/19 04:56:19;;;;;;;;;;;;;;;-7.78;82.42;100702.88;5084524;28;19932;-64
2022/12/19 04:58:44;;;;;;;;;;;;;;;-7.75;82.43;100713.22;5085172;28;19935;-66
2022/12/19 05:01:12;;;;;;;;;;;;;;;-7.70;82.37;100699.56;5086939;28;19981;-65
2022/12/19 05:03:40;;;;;;;;;;;;;;;-7.58;82.54;100692.31;5067087;28;19928;-65
2022/12/19 05:06:07;;;;;;;;;;;;;;;-7.50;82.62;100695.16;5087986;28;19934;-66
2022/12/19 05:08:33;;;;;;;;;;;;;;;-7.48;82.44;100689.72;5089881;28;19932;-66
2022/12/19 05:10:59;;;;;;;;;;;;;;;-7.50;82.30;100703.13;5067463;28;19932;-65
2022/12/19 05:13:25;;;;;;;;;;;;;;;-7.47;82.23;100707.34;5069633;28;20034;-65
2022/12/19 05:15:54;;;;;;;;;;;;;;;-7.45;82.17;100708.06;5085039;28;20079;-66
2022/12/19 05:18:20;;;;;;;;;;;;;;;-7.40;82.50;100705.81;5053782;28;19928;-65
2022/12/19 05:20:48;;;;;;;;;;;;;;;-7.37;82.08;100710.88;5087459;28;19928;-66
2022/12/19 05:23:14;;;;;;;;;;;;;;;-7.42;82.20;100703.28;5068313;28;19928;-66
2022/12/19 05:25:39;;;;;;;;;;;;;;;-7.44;82.44;100701.75;5085920;28;19974;-66
2022/12/19 05:28:05;;;;;;;;;;;;;;;-7.45;82.43;100700.09;5067527;28;19928;-65
2022/12/19 05:30:31;;;;;;;;;;;;;;;-7.47;82.13;100697.56;5086957;28;19928;-66
2022/12/19 05:32:57;;;;;;;;;;;;;;;-7.44;82.52;100709.75;5087516;28;19935;-65
2022/12/19 05:35:22;;;;;;;;;;;;;;;-7.50;82.04;100707.59;5060490;28;19950;-66
2022/12/19 05:37:50;;;;;;;;;;;;;;;-7.46;82.53;100707.19;5074206;28;20288;-65
2022/12/19 05:40:16;;;;;;;;;;;;;;;-7.39;82.60;100701.38;5070816;28;19931;-65
2022/12/19 05:42:41;;;;;;;;;;;;;;;-7.34;82.73;100701.78;5070436;28;19955;-66
2022/12/19 05:45:07;;;;;;;;;;;;;;;-7.35;82.45;100692.13;5070232;28;19950;-66
2022/12/19 05:47:33;;;;;;;;;;;;;;;-7.39;82.23;100694.22;5068093;28;19927;-65
2022/12/19 05:49:59;;;;;;;;;;;;;;;-7.38;82.47;100692.41;5070257;28;19932;-66
2022/12/19 05:52:24;;;;;;;;;;;;;;;-7.34;82.53;100684.00;5076308;28;19928;-66
2022/12/19 05:54:51;;;;;;;;;;;;;;;-7.36;82.13;100693.94;5080822;28;19935;-66
2022/12/19 05:57:17;;;;;;;;;;;;;;;-7.36;82.47;100688.63;5077778;28;19928;-66
2022/12/19 05:59:43;;;;;;;;;;;;;;;-7.29;82.43;100678.28;5075621;28;19934;-66
2022/12/19 06:02:08;;;;;;;;;;;;;;;-7.26;82.61;100686.00;5077910;28;19931;-66
2022/12/19 06:04:34;;;;;;;;;;;;;;;-7.17;82.79;100682.53;5052834;28;19928;-65
2022/12/19 06:07:00;;;;;;;;;;;;;;;-7.19;82.39;100679.16;5079421;28;20318;-66
2022/12/19 06:09:25;;;;;;;;;;;;;;;-7.18;82.97;100670.22;5061825;28;19932;-66
2022/12/19 06:11:53;;;;;;;;;;;;;;;-7.13;82.68;100672.47;5068217;28;20361;-66
2022/12/19 06:14:19;;;;;;;;;;;;;;;-7.07;82.58;100685.19;5084950;28;19928;-66
2022/12/19 06:16:45;;;;;;;;;;;;;;;-7.05;82.66;100680.56;5082869;28;19935;-65
2022/12/19 06:19:10;;;;;;;;;;;;;;;-7.05;81.98;100672.59;5081769;28;19932;-66
2022/12/19 06:21:36;;;;;;;;;;;;;;;-7.06;82.09;100694.84;5083802;28;20027;-66
2022/12/19 06:24:02;;;;;;;;;;;;;;;-7.03;81.96;100699.06;5084411;28;19928;-65
2022/12/19 06:26:28;;;;;;;;;;;;;;;-7.03;81.95;100694.56;5065854;28;19980;-65
2022/12/19 06:28:55;;;;;;;;;;;;;;;-7.07;81.70;100703.81;5085140;28;19981;-65
2022/12/19 06:31:22;;;;;;;;;;;;;;;-7.07;81.70;100706.47;5085680;28;19938;-68
2022/12/19 06:33:48;;;;;;;;;;;;;;;-7.14;81.80;100689.41;5058045;28;20342;-66
2022/12/19 06:36:15;;;;;;;;;;;;;;;-7.08;81.81;100712.75;5080538;28;20299;-66
2022/12/19 06:38:41;;;;;;;;;;;;;;;-7.08;81.92;100711.94;5086514;28;20389;-65
2022/12/19 06:43:52;;;;;;;;;;;;;;;-7.02;81.73;100704.25;5087060;28;19928;-66
2022/12/19 06:46:19;;;;;;;;;;;;;;;-6.96;81.61;100697.53;5086900;28;19974;-66
2022/12/19 06:48:44;;;;;;;;;;;;;;;-6.89;81.61;100700.47;5084194;28;19932;-66
2022/12/19 06:51:10;;;;;;;;;;;;;;;-6.88;81.62;100703.00;5062533;28;20428;-66
2022/12/19 06:53:36;;;;;;;;;;;;;;;-6.88;81.57;100696.81;5084463;28;19938;-65
2022/12/19 06:56:02;;;;;;;;;;;;;;;-6.88;81.52;100700.34;5085381;28;19928;-65
2022/12/19 06:58:28;;;;;;;;;;;;;;;-6.84;81.42;100712.38;5072118;28;19967;-65
2022/12/19 07:00:53;;;;;;;;;;;;;;;-6.74;81.61;100701.75;5085656;28;19967;-65
2022/12/19 07:03:23;;;;;;;;;;;;;;;-6.65;81.43;100699.25;5085450;28;19935;-66
2022/12/19 07:05:49;;;;;;;;;;;;;;;-6.65;81.40;100699.25;5083846;28;19934;-65
2022/12/19 07:08:15;;;;;;;;;;;;;;;-6.68;81.40;100696.88;5085180;28;19928;-66
2022/12/19 07:10:40;;;;;;;;;;;;;;;-6.66;81.39;100694.91;5084538;28;19989;-66
2022/12/19 07:13:06;;;;;;;;;;;;;;;-6.64;81.43;100687.59;5064590;28;20395;-67
2022/12/19 07:15:33;;;;;;;;;;;;;;;-6.57;81.76;100691.38;5084784;28;19932;-66
2022/12/19 07:17:59;;;;;;;;;;;;;;;-6.47;81.67;100675.44;5079172;28;19932;-66
2022/12/19 07:20:26;;;;;;;;;;;;;;;-6.40;81.47;100679.19;5083018;28;19935;-66
2022/12/19 07:22:52;;;;;;;;;;;;;;;-6.35;81.46;100673.44;5079783;28;19928;-66
2022/12/19 07:25:18;;;;;;;;;;;;;;;-6.29;81.25;100683.50;5071108;28;19928;-66
2022/12/19 07:27:45;;;;;;;;;;;;;;;-6.24;81.12;100673.28;5060388;28;20022;-64
2022/12/19 07:30:11;;;;;;;;;;;;;;;-6.21;81.11;100696.09;5062635;28;19973;-64
2022/12/19 07:32:38;;;;;;;;;;;;;;;-6.17;81.14;100685.03;5084341;28;19932;-64
2022/12/19 07:35:04;;;;;;;;;;;;;;;-6.15;80.93;100687.56;5067339;28;19928;-64
2022/12/19 07:37:31;;;;;;;;;;;;;;;-6.19;80.93;100688.81;5086083;28;19968;-64
2022/12/19 07:39:57;;;;;;;;;;;;;;;-6.23;80.92;100684.75;5083075;28;19963;-64
2022/12/19 07:42:22;;;;;;;;;;;;;;;-6.29;80.98;100691.50;5084499;28;19966;-64
2022/12/19 07:44:49;;;;;;;;;;;;;;;-6.37;81.46;100699.38;5051315;28;19935;-64
2022/12/19 07:47:14;;;;;;;;;;;;;;;-6.38;81.45;100698.50;5064911;28;19928;-65
2022/12/19 07:49:40;;;;;;;;;;;;;;;-6.36;81.63;100701.88;5064690;28;19928;-66
2022/12/19 07:52:07;;;;;;;;;;;;;;;-6.34;81.75;100702.56;5083455;28;20516;-66
2022/12/19 07:54:34;;;;;;;;;;;;;;;-6.31;81.81;100699.66;5065550;28;19928;-66
2022/12/19 07:57:00;;;;;;;;;;;;;;;-6.30;82.06;100709.31;5061821;28;19981;-65
2022/12/19 07:59:26;;;;;;;;;;;;;;;-6.30;82.18;100705.78;5081930;28;19932;-66
2022/12/19 08:01:51;;;;;;;;;;;;;;;-6.29;82.16;100699.47;5082623;28;19928;-67
2022/12/19 08:04:17;;;;;;;;;;;;;;;-6.31;82.08;100690.81;5065862;28;19973;-64
2022/12/19 08:06:43;;;;;;;;;;;;;;;-6.27;82.36;100692.19;5066180;28;20319;-64
2022/12/19 08:09:09;;;;;;;;;;;;;;;-6.21;82.25;100688.13;5084448;28;19928;-64
2022/12/19 08:11:36;;;;;;;;;;;;;;;-6.14;82.31;100678.59;5061626;28;20225;-64
2022/12/19 08:14:02;;;;;;;;;;;;;;;-6.16;82.10;100683.22;5084450;28;19959;-64
2022/12/19 08:16:28;;;;;;;;;;;;;;;-6.17;82.15;100681.50;5082515;28;19963;-64
2022/12/19 08:18:54;;;;;;;;;;;;;;;-6.12;82.37;100687.28;5078336;28;19932;-64
2022/12/19 08:21:20;;;;;;;;;;;;;;;-6.11;82.26;100696.94;5067313;28;19947;-64
2022/12/19 08:23:46;;;;;;;;;;;;;;;-6.06;82.04;100699.19;5082531;28;20464;-64
2022/12/19 08:26:13;;;;;;;;;;;;;;;-6.05;82.24;100692.88;5063158;28;19928;-65
2022/12/19 08:28:40;;;;;;;;;;;;;;;-6.05;82.21;100691.03;5084444;28;20279;-64
2022/12/19 08:31:06;;;;;;;;;;;;;;;-6.02;82.26;100688.06;5066328;28;19928;-64
2022/12/19 08:33:32;;;;;;;;;;;;;;;-5.95;82.27;100677.66;5083458;28;19932;-65
2022/12/19 08:35:58;;;;;;;;;;;;;;;-5.91;82.17;100678.19;5084951;28;20014;-64
2022/12/19 08:38:23;;;;;;;;;;;;;;;-5.88;82.15;100681.44;5084951;28;19935;-64
2022/12/19 08:40:50;;;;;;;;;;;;;;;-5.86;82.25;100678.59;5082188;28;20390;-64
2022/12/19 08:43:16;;;;;;;;;;;;;;;-5.79;82.56;100671.72;5066414;28;19947;-64
2022/12/19 08:45:44;;;;;;;;;;;;;;;-5.76;82.23;100673.25;5081569;28;19974;-65
2022/12/19 08:48:10;;;;;;;;;;;;;;;-5.76;82.13;100681.25;5081090;28;19954;-65
2022/12/19 08:50:35;;;;;;;;;;;;;;;-5.75;82.22;100662.44;5083681;28;20386;-64
2022/12/19 08:53:01;;;;;;;;;;;;;;;-5.73;82.14;100664.97;5081900;28;20895;-64
2022/12/19 08:55:27;;;;;;;;;;;;;;;-5.71;82.18;100671.81;5085433;28;20028;-65
2022/12/19 08:57:52;;;;;;;;;;;;;;;-5.73;82.13;100665.78;5084500;28;19928;-64
2022/12/19 09:00:19;;;;;;;;;;;;;;;-5.71;82.28;100676.31;5084552;28;19928;-64
2022/12/19 09:02:46;;;;;;;;;;;;;;;-5.67;82.67;100666.22;5084463;28;20055;-64
2022/12/19 09:05:12;;;;;;;;;;;;;;;-5.65;82.84;100669.56;5081404;28;19989;-65
2022/12/19 09:07:39;;;;;;;;;;;;;;;-5.65;83.35;100665.06;5084512;28;20371;-64
2022/12/19 09:10:06;;;;;;;;;;;;;;;-5.58;83.16;100660.81;5087604;28;19982;-64
2022/12/19 09:12:32;;;;;;;;;;;;;;;-5.58;82.93;100662.63;5079623;28;20460;-64
2022/12/19 09:14:57;;;;;;;;;;;;;;;-5.59;83.12;100664.47;5078007;28;19979;-64
2022/12/19 09:17:23;;;;;;;;;;;;;;;-5.58;82.89;100654.66;5082965;28;20288;-64
2022/12/19 09:19:50;;;;;;;;;;;;;;;-5.60;82.73;100667.28;5082360;28;19950;-64
2022/12/19 09:22:16;;;;;;;;;;;;;;;-5.63;82.52;100657.75;5081574;28;20289;-64
2022/12/19 09:24:42;;;;;;;;;;;;;;;-5.63;82.55;100659.59;5083988;28;19985;-65
2022/12/19 09:27:08;;;;;;;;;;;;;;;-5.64;82.46;100656.06;5082943;28;19928;-65
2022/12/19 09:29:34;;;;;;;;;;;;;;;-5.57;82.88;100659.84;5082787;28;20042;-65
2022/12/19 09:32:00;;;;;;;;;;;;;;;-5.48;82.64;100668.78;5086468;28;19928;-65
2022/12/19 09:34:27;;;;;;;;;;;;;;;-5.42;82.44;100657.50;5052929;28;19934;-65
2022/12/19 09:36:54;;;;;;;;;;;;;;;-5.33;82.38;100657.63;5052257;28;19932;-64
2022/12/19 09:39:20;;;;;;;;;;;;;;;-5.31;81.99;100656.47;5087193;28;19942;-65
2022/12/19 09:42:03;;;;;;;;;;;;;;;-5.33;82.27;100657.63;5087002;28;20385;-64
2022/12/19 09:44:36;;;;;;;;;;;;;;;-5.31;82.32;100664.47;5078693;28;19981;-66
2022/12/19 09:47:03;;;;;;;;;;;;;;;-5.35;82.32;100660.41;5084984;28;19935;-64
2022/12/19 09:49:33;;;;;;;;;;;;;;;-5.31;82.70;100655.63;5087252;28;20370;-64
2022/12/19 09:52:03;;;;;;;;;;;;;;;-5.20;82.74;100667.91;5089013;28;19953;-64
2022/12/19 09:54:34;;;;;;;;;;;;;;;-5.20;82.79;100663.44;5069596;28;19928;-64
2022/12/19 09:57:01;;;;;;;;;;;;;;;-5.19;82.67;100658.91;5085474;28;20038;-64
2022/12/19 09:59:30;;;;;;;;;;;;;;;-5.19;82.50;100662.44;5087211;28;19932;-64
2022/12/19 10:02:00;;;;;;;;;;;;;;;-5.17;82.61;100659.59;5085155;28;19954;-64
2022/12/19 10:04:28;;;;;;;;;;;;;;;-5.17;82.71;100660.44;5084155;28;20188;-64
2022/12/19 10:06:54;;;;;;;;;;;;;;;-5.18;82.77;100671.25;5081142;28;20014;-64
2022/12/19 10:09:23;;;;;;;;;;;;;;;-5.16;82.95;100667.47;5085243;28;20222;-64
2022/12/19 10:11:59;;;;;;;;;;;;;;;-5.15;83.05;100655.81;5069394;28;19928;-64
2022/12/19 10:14:32;;;;;;;;;;;;;;;-5.18;83.27;100658.78;5087961;28;19982;-64
2022/12/19 10:17:02;;;;;;;;;;;;;;;-5.15;83.43;100650.47;5069156;28;19931;-64
2022/12/19 10:19:35;;;;;;;;;;;;;;;-5.16;83.55;100651.47;5086044;28;20012;-64
2022/12/19 10:22:05;;;;;;;;;;;;;;;-5.14;83.64;100656.66;5085808;28;19932;-64
2022/12/19 10:24:54;;;;;;;;;;;;;;;-5.14;83.55;100657.47;5089400;28;20410;-65
2022/12/19 10:27:25;;;;;;;;;;;;;;;-5.07;83.88;100646.19;5078558;28;19935;-64
2022/12/19 10:30:00;;;;;;;;;;;;;;;-5.06;83.64;100653.25;5086739;28;19928;-64
2022/12/19 10:32:30;;;;;;;;;;;;;;;-5.13;83.83;100666.34;5085750;28;20501;-64
2022/12/19 10:34:56;;;;;;;;;;;;;;;-5.12;84.21;100649.34;5070596;28;19928;-64
2022/12/19 10:37:23;;;;;;;;;;;;;;;-5.09;84.12;100643.69;5088472;28;19985;-64
2022/12/19 10:40:07;;;;;;;;;;;;;;;-5.09;84.25;100646.38;5087981;28;19974;-64
2022/12/19 10:42:39;;;;;;;;;;;;;;;-5.07;84.18;100641.72;5085516;28;19982;-64
2022/12/19 10:45:11;;;;;;;;;;;;;;;-5.08;84.29;100658.72;5085257;28;19928;-64
2022/12/19 10:47:37;;;;;;;;;;;;;;;-5.06;84.41;100640.72;5084460;28;20026;-64
2022/12/19 10:50:03;;;;;;;;;;;;;;;-4.99;84.59;100640.94;5085452;28;19967;-64
2022/12/19 10:52:46;;;;;;;;;;;;;;;-4.92;84.52;100650.00;5066698;28;19981;-64
2022/12/19 10:55:21;;;;;;;;;;;;;;;-4.93;84.19;100650.19;5085746;28;19927;-65
2022/12/19 10:57:48;;;;;;;;;;;;;;;-4.96;84.28;100656.66;5070132;28;20025;-64
2022/12/19 11:00:15;;;;;;;;;;;;;;;-4.99;84.25;100647.16;5088021;28;20039;-64
2022/12/19 11:02:44;;;;;;;;;;;;;;;-5.00;84.38;100649.94;5086115;28;20222;-64
2022/12/19 11:05:24;;;;;;;;;;;;;;;-5.04;84.37;100646.75;5087638;28;20417;-64
2022/12/19 11:07:59;;;;;;;;;;;;;;;-5.03;84.75;100652.94;5085173;28;20359;-64
2022/12/19 11:10:36;;;;;;;;;;;;;;;-4.96;84.74;100655.84;5087795;28;20438;-64
2022/12/19 11:13:18;;;;;;;;;;;;;;;-4.95;84.68;100644.16;5085796;28;19928;-64
2022/12/19 11:15:48;;;;;;;;;;;;;;;-4.99;84.66;100660.47;5070466;28;20039;-64
2022/12/19 11:18:15;;;;;;;;;;;;;;;-4.95;84.79;100654.84;5085749;28;19934;-64
2022/12/19 11:20:52;;;;;;;;;;;;;;;-4.97;84.86;100652.31;5082810;28;19934;-65
2022/12/19 11:23:18;;;;;;;;;;;;;;;-4.96;84.81;100663.84;5049130;28;19935;-64
2022/12/19 11:25:51;;;;;;;;;;;;;;;-4.97;85.10;100651.50;5084914;28;19928;-64
2022/12/19 11:28:21;;;;;;;;;;;;;;;-5.01;85.05;100659.78;5083719;28;19966;-64
2022/12/19 11:30:54;;;;;;;;;;;;;;;-5.01;85.42;100656.28;5068275;28;19982;-64
2022/12/19 11:33:19;;;;;;;;;;;;;;;-5.00;85.35;100668.63;5067073;28;20079;-65
2022/12/19 11:35:47;;;;;;;;;;;;;;;-4.96;85.57;100667.31;5084120;28;20034;-64
2022/12/19 11:38:15;;;;;;;;;;;;;;;-4.91;85.41;100680.22;5083999;28;19935;-64
2022/12/19 11:40:44;;;;;;;;;;;;;;;-4.90;85.43;100671.22;5087153;28;19928;-66
2022/12/19 11:43:12;;;;;;;;;;;;;;;-4.92;85.09;100682.03;5086139;28;20009;-65
2022/12/19 11:45:42;;;;;;;;;;;;;;;-4.94;85.26;100685.88;5084276;28;20066;-64
2022/12/19 11:48:11;;;;;;;;;;;;;;;-4.91;85.31;100693.56;5082075;28;19928;-64
2022/12/19 11:50:39;;;;;;;;;;;;;;;-4.84;85.21;100676.78;5084038;28;20298;-64
2022/12/19 11:53:14;;;;;;;;;;;;;;;-4.78;85.30;100680.69;5083679;28;19997;-64
2022/12/19 11:55:42;;;;;;;;;;;;;;;-4.72;85.23;100688.06;5082934;28;19959;-64
2022/12/19 11:58:09;;;;;;;;;;;;;;;-4.70;84.77;100680.75;5086298;28;19928;-64
2022/12/19 12:00:36;;;;;;;;;;;;;;;-4.74;84.51;100673.22;5086887;28;20030;-64
2022/12/19 12:03:23;;;;;;;;;;;;;;;-4.76;84.69;100686.69;5085674;28;19928;-64
2022/12/19 12:05:51;;;;;;;;;;;;;;;-4.79;84.86;100678.16;5049955;28;20414;-64
2022/12/19 12:08:40;;;;;;;;;;;;;;;-4.80;84.72;100689.81;5048417;28;20459;-64
2022/12/19 12:11:17;;;;;;;;;;;;;;;-4.79;84.86;100691.50;5064295;28;19934;-64
2022/12/19 12:13:49;;;;;;;;;;;;;;;-4.77;85.00;100684.16;5080340;28;20350;-64
2022/12/19 12:16:15;;;;;;;;;;;;;;;-4.73;85.09;100698.91;5078727;28;20448;-65
2022/12/19 12:18:55;;;;;;;;;;;;;;;-4.73;84.81;100683.72;5061667;28;19928;-64
2022/12/19 12:21:22;;;;;;;;;;;;;;;-4.71;84.86;100699.59;5082600;28;20020;-65
2022/12/19 12:23:55;;;;;;;;;;;;;;;-4.67;85.00;100697.47;5082479;28;19978;-64
2022/12/19 12:26:26;;;;;;;;;;;;;;;-4.62;84.82;100696.00;5063936;28;19982;-64
2022/12/19 12:29:01;;;;;;;;;;;;;;;-4.59;84.76;100705.53;5083224;28;20352;-64
2022/12/19 12:31:30;;;;;;;;;;;;;;;-4.61;84.64;100703.00;5081354;28;19939;-65
2022/12/19 12:34:02;;;;;;;;;;;;;;;-4.61;84.79;100700.34;5085103;28;20310;-65
2022/12/19 12:36:32;;;;;;;;;;;;;;;-4.61;84.78;100699.50;5064622;28;19947;-65
2022/12/19 12:39:02;;;;;;;;;;;;;;;-4.61;84.71;100710.19;5084997;28;20383;-65
2022/12/19 12:44:18;;;;;;;;;;;;;;;-4.51;84.94;100720.78;5083502;28;20342;-64
2022/12/19 12:46:45;;;;;;;;;;;;;;;-4.53;84.93;100714.78;5074418;28;19929;-64
2022/12/19 12:49:21;;;;;;;;;;;;;;;-4.50;85.11;100725.13;5071737;28;19927;-64